createdAt,value
2022-12-18T00:00:12.564Z,5.60
2022-12-18T00:02:42.665Z,5.60
2022-12-18T00:05:14.726Z,5.60
2022-12-18T00:07:42.031Z,5.60
2022-12-18T00:10:11.647Z,5.60
2022-12-18T00:12:42.695Z,5.60
2022-12-18T00:15:10.193Z,5.60
2022-12-18T00:17:37.444Z,5.60
2022-12-18T00:20:05.232Z,5.70
2022-12-18T00:22:32.526Z,5.70
2022-12-18T00:25:00.091Z,5.70
2022-12-18T00:27:27.356Z,5.80
2022-12-18T00:29:55.911Z,5.80
2022-12-18T00:32:25.692Z,5.80
2022-12-18T00:34:53.008Z,5.80
2022-12-18T00:37:23.836Z,5.80
2022-12-18T00:39:51.946Z,5.80
2022-12-18T00:42:39.415Z,5.80
2022-12-18T00:45:12.324Z,5.80
2022-12-18T00:47:44.062Z,5.80
2022-12-18T00:50:12.858Z,5.80
2022-12-18T00:52:41.604Z,5.90
2022-12-18T00:55:10.491Z,5.90
2022-12-18T00:57:37.977Z,5.90
2022-12-18T01:00:07.910Z,5.90
2022-12-18T01:03:01.783Z,5.90
2022-12-18T01:05:31.708Z,5.90
2022-12-18T01:07:59.487Z,6.00
2022-12-18T01:10:27.082Z,6.00
2022-12-18T01:13:17.215Z,6.00
2022-12-18T01:15:53.745Z,6.00
2022-12-18T01:18:21.111Z,6.00
2022-12-18T01:20:48.507Z,6.00
2022-12-18T01:23:15.827Z,6.00
2022-12-18T01:25:43.340Z,6.10
2022-12-18T01:28:10.961Z,6.10
2022-12-18T01:30:38.442Z,6.10
2022-12-18T01:33:07.852Z,6.10
2022-12-18T01:35:44.192Z,6.10
2022-12-18T01:38:11.800Z,6.10
2022-12-18T01:40:40.613Z,6.10
2022-12-18T01:43:39.345Z,6.10
2022-12-18T01:46:10.250Z,6.10
2022-12-18T01:48:38.506Z,6.10
2022-12-18T01:51:09.884Z,6.10
2022-12-18T01:53:40.375Z,6.20
2022-12-18T01:56:09.832Z,6.20
2022-12-18T01:59:02.939Z,6.20
2022-12-18T02:01:35.097Z,6.20
2022-12-18T02:04:38.405Z,6.20
2022-12-18T02:07:13.076Z,6.30
2022-12-18T02:10:12.248Z,6.30
2022-12-18T02:12:56.908Z,6.40
2022-12-18T02:15:30.205Z,6.30
2022-12-18T02:18:09.651Z,6.30
2022-12-18T02:20:48.726Z,6.30
2022-12-18T02:23:37.455Z,6.30
2022-12-18T02:26:22.145Z,6.30
2022-12-18T02:29:05.272Z,6.30
2022-12-18T02:31:41.216Z,6.30
2022-12-18T02:34:12.600Z,6.30
2022-12-18T02:36:44.655Z,6.40
2022-12-18T02:42:22.404Z,6.40
2022-12-18T02:44:55.336Z,6.40
2022-12-18T02:47:32.758Z,6.40
2022-12-18T02:50:34.124Z,6.40
2022-12-18T02:53:01.362Z,6.30
2022-12-18T02:55:40.724Z,6.30
2022-12-18T02:58:35.168Z,6.40
2022-12-18T03:01:27.069Z,6.40
2022-12-18T03:03:56.778Z,6.40
2022-12-18T03:06:48.050Z,6.30
2022-12-18T03:09:58.135Z,6.30
2022-12-18T03:12:36.509Z,6.40
2022-12-18T03:15:09.542Z,6.40
2022-12-18T03:18:15.306Z,6.40
2022-12-18T03:20:45.577Z,6.40
2022-12-18T03:23:25.558Z,6.40
2022-12-18T03:26:07.140Z,6.30
2022-12-18T03:28:44.767Z,6.30
2022-12-18T03:31:40.501Z,6.30
2022-12-18T03:34:34.073Z,6.30
2022-12-18T03:37:05.917Z,6.30
2022-12-18T03:39:35.447Z,6.30
2022-12-18T03:42:15.049Z,6.30
2022-12-18T03:45:13.596Z,6.30
2022-12-18T03:47:53.771Z,6.30
2022-12-18T03:50:43.852Z,6.30
2022-12-18T03:53:44.398Z,6.30
2022-12-18T03:56:16.937Z,6.30
2022-12-18T03:58:46.642Z,6.30
2022-12-18T04:01:48.479Z,6.30
2022-12-18T04:04:18.693Z,6.30
2022-12-18T04:06:48.429Z,6.30
2022-12-18T04:09:49.216Z,6.30
2022-12-18T04:12:16.781Z,6.30
2022-12-18T04:14:46.428Z,6.30
2022-12-18T04:17:15.711Z,6.20
2022-12-18T04:20:15.065Z,6.30
2022-12-18T04:22:44.825Z,6.20
2022-12-18T04:28:07.374Z,6.20
2022-12-18T04:30:35.936Z,6.20
2022-12-18T04:33:03.335Z,6.30
2022-12-18T04:35:34.411Z,6.30
2022-12-18T04:38:02.017Z,6.30
2022-12-18T04:41:47.588Z,6.20
2022-12-18T04:44:15.442Z,6.20
2022-12-18T04:47:08.549Z,6.20
2022-12-18T04:49:35.871Z,6.30
2022-12-18T04:52:03.279Z,6.20
2022-12-18T04:54:30.638Z,6.20
2022-12-18T04:56:57.880Z,6.20
2022-12-18T04:59:28.612Z,6.20
2022-12-18T05:01:55.944Z,6.20
2022-12-18T05:04:23.323Z,6.30
2022-12-18T05:06:50.639Z,6.40
2022-12-18T05:09:17.901Z,6.30
2022-12-18T05:11:54.685Z,6.20
2022-12-18T05:14:21.955Z,6.20
2022-12-18T05:16:49.431Z,6.40
2022-12-18T05:19:21.147Z,6.40
2022-12-18T05:21:48.412Z,6.40
2022-12-18T05:24:15.746Z,6.40
2022-12-18T05:26:43.392Z,6.40
2022-12-18T05:29:15.416Z,6.40
2022-12-18T05:31:42.985Z,6.20
2022-12-18T05:34:11.020Z,6.30
2022-12-18T05:36:38.777Z,6.30
2022-12-18T05:39:06.311Z,6.20
2022-12-18T05:41:33.943Z,6.20
2022-12-18T05:44:01.395Z,6.20
2022-12-18T05:46:28.941Z,6.20
2022-12-18T05:48:56.229Z,6.10
2022-12-18T05:51:24.067Z,6.20
2022-12-18T05:53:51.561Z,6.20
2022-12-18T05:56:24.138Z,6.10
2022-12-18T05:58:55.339Z,6.10
2022-12-18T06:01:27.228Z,6.20
2022-12-18T06:03:57.142Z,6.20
2022-12-18T06:06:27.668Z,6.10
2022-12-18T06:08:56.534Z,6.20
2022-12-18T06:11:26.341Z,6.10
2022-12-18T06:13:59.103Z,6.10
2022-12-18T06:16:51.148Z,6.00
2022-12-18T06:19:18.523Z,6.00
2022-12-18T06:21:45.784Z,6.00
2022-12-18T06:24:15.194Z,6.10
2022-12-18T06:26:43.768Z,6.10
2022-12-18T06:29:11.114Z,6.10
2022-12-18T06:31:48.873Z,6.10
2022-12-18T06:34:16.180Z,6.20
2022-12-18T06:36:46.484Z,6.10
2022-12-18T06:39:13.807Z,6.20
2022-12-18T06:41:41.092Z,6.20
2022-12-18T06:44:20.547Z,6.20
2022-12-18T06:46:47.833Z,6.20
2022-12-18T06:49:17.569Z,6.20
2022-12-18T06:51:48.185Z,6.20
2022-12-18T06:54:16.100Z,6.10
2022-12-18T06:56:44.692Z,6.20
2022-12-18T06:59:11.976Z,6.10
2022-12-18T07:01:39.407Z,6.10
2022-12-18T07:04:16.150Z,6.10
2022-12-18T07:06:45.510Z,6.20
2022-12-18T07:09:12.812Z,6.30
2022-12-18T07:11:40.161Z,6.30
2022-12-18T07:14:19.979Z,6.30
2022-12-18T07:16:56.961Z,6.30
2022-12-18T07:19:24.668Z,6.30
2022-12-18T07:21:52.484Z,6.40
2022-12-18T07:24:19.827Z,6.40
2022-12-18T07:26:47.724Z,6.40
2022-12-18T07:29:17.162Z,6.40
2022-12-18T07:31:53.972Z,6.40
2022-12-18T07:41:06.713Z,6.50
2022-12-18T07:43:58.665Z,6.60
2022-12-18T07:46:26.173Z,6.70
2022-12-18T07:48:53.589Z,6.60
2022-12-18T07:51:31.468Z,6.60
2022-12-18T07:53:58.768Z,6.60
2022-12-18T07:56:28.079Z,6.60
2022-12-18T07:58:56.767Z,6.60
2022-12-18T08:01:26.823Z,6.70
2022-12-18T08:03:55.635Z,6.80
2022-12-18T08:06:24.274Z,6.80
2022-12-18T08:08:56.364Z,6.80
2022-12-18T08:11:48.499Z,6.80
2022-12-18T08:14:19.042Z,6.80
2022-12-18T08:17:35.912Z,6.80
2022-12-18T08:20:05.398Z,6.80
2022-12-18T08:22:36.282Z,6.80
2022-12-18T08:25:04.713Z,6.80
2022-12-18T08:27:32.677Z,6.90
2022-12-18T08:30:00.296Z,6.90
2022-12-18T08:32:29.144Z,6.90
2022-12-18T08:34:56.457Z,6.90
2022-12-18T08:37:26.143Z,6.90
2022-12-18T08:39:53.530Z,7.00
2022-12-18T08:42:40.672Z,7.00
2022-12-18T08:45:08.672Z,7.00
2022-12-18T08:47:35.957Z,7.00
2022-12-18T08:50:03.508Z,7.00
2022-12-18T08:52:33.256Z,7.00
2022-12-18T08:55:00.620Z,7.00
2022-12-18T09:00:16.002Z,7.00
2022-12-18T09:02:44.480Z,7.10
2022-12-18T09:06:04.930Z,7.10
2022-12-18T09:08:37.751Z,7.10
2022-12-18T09:11:08.550Z,7.10
2022-12-18T09:13:37.802Z,7.20
2022-12-18T09:16:05.654Z,7.30
2022-12-18T09:18:32.917Z,7.30
2022-12-18T09:21:00.164Z,7.50
2022-12-18T09:23:27.404Z,7.60
2022-12-18T09:26:00.126Z,7.70
2022-12-18T09:28:28.173Z,7.70
2022-12-18T09:30:55.481Z,7.70
2022-12-18T09:33:22.829Z,7.80
2022-12-18T09:35:53.631Z,7.90
2022-12-18T09:38:46.450Z,8.10
2022-12-18T09:41:31.602Z,8.10
2022-12-18T09:44:12.228Z,8.10
2022-12-18T09:46:45.948Z,8.20
2022-12-18T09:49:17.426Z,8.30
2022-12-18T09:51:57.048Z,8.30
2022-12-18T09:54:35.280Z,8.40
2022-12-18T09:57:02.695Z,8.50
2022-12-18T09:59:40.832Z,8.50
2022-12-18T10:02:20.376Z,8.40
2022-12-18T10:04:57.623Z,8.40
2022-12-18T10:07:47.791Z,8.40
2022-12-18T10:10:23.966Z,8.40
2022-12-18T10:13:17.457Z,8.40
2022-12-18T10:16:06.985Z,8.60
2022-12-18T10:18:44.427Z,8.50
2022-12-18T10:21:16.646Z,8.50
2022-12-18T10:24:15.107Z,8.40
2022-12-18T10:26:43.489Z,8.40
2022-12-18T10:29:15.579Z,8.40
2022-12-18T10:31:43.296Z,8.50
2022-12-18T10:34:12.202Z,8.60
2022-12-18T10:36:40.944Z,8.70
2022-12-18T10:39:36.231Z,8.80
2022-12-18T10:42:19.215Z,8.70
2022-12-18T10:45:01.563Z,8.80
2022-12-18T10:47:29.058Z,8.70
2022-12-18T10:49:59.643Z,8.80
2022-12-18T10:52:28.203Z,8.80
2022-12-18T10:55:03.588Z,8.80
2022-12-18T10:57:37.686Z,8.80
2022-12-18T11:00:20.489Z,8.60
2022-12-18T11:02:48.056Z,8.50
2022-12-18T11:05:30.885Z,8.40
2022-12-18T11:07:59.653Z,8.30
2022-12-18T11:10:36.346Z,8.20
2022-12-18T11:13:19.687Z,8.20
2022-12-18T11:15:47.592Z,8.20
2022-12-18T11:18:31.306Z,8.10
2022-12-18T11:21:09.907Z,8.10
2022-12-18T11:23:45.244Z,8.20
2022-12-18T11:26:14.003Z,8.20
2022-12-18T11:28:53.601Z,8.20
2022-12-18T11:31:28.484Z,8.30
2022-12-18T11:34:31.484Z,8.30
2022-12-18T11:37:01.927Z,8.40
2022-12-18T11:39:34.718Z,8.40
2022-12-18T11:42:20.980Z,8.60
2022-12-18T11:44:59.317Z,8.70
2022-12-18T11:47:46.890Z,8.90
2022-12-18T11:50:19.999Z,8.90
2022-12-18T11:52:50.411Z,8.90
2022-12-18T11:55:41.001Z,8.90
2022-12-18T11:58:39.465Z,8.90
2022-12-18T12:01:40.358Z,8.90
2022-12-18T12:04:40.178Z,9.10
2022-12-18T12:07:10.711Z,9.10
2022-12-18T12:09:52.487Z,9.10
2022-12-18T12:12:56.449Z,9.20
2022-12-18T12:15:58.127Z,9.20
2022-12-18T12:18:53.426Z,9.20
2022-12-18T12:21:20.655Z,9.20
2022-12-18T12:24:13.161Z,9.20
2022-12-18T12:26:45.328Z,9.20
2022-12-18T12:29:34.410Z,9.30
2022-12-18T12:32:26.680Z,9.30
2022-12-18T12:35:09.983Z,9.50
2022-12-18T12:37:45.676Z,9.30
2022-12-18T12:40:49.328Z,9.30
2022-12-18T12:43:13.590Z,9.30
2022-12-18T12:46:02.225Z,9.30
2022-12-18T12:48:53.596Z,9.30
2022-12-18T12:51:42.511Z,9.30
2022-12-18T12:54:24.133Z,9.40
2022-12-18T12:57:01.285Z,9.40
2022-12-18T12:59:56.995Z,9.40
2022-12-18T13:02:55.853Z,9.40
2022-12-18T13:05:44.481Z,9.50
2022-12-18T13:08:30.918Z,9.50
2022-12-18T13:11:59.296Z,9.40
2022-12-18T13:14:39.989Z,9.40
2022-12-18T13:17:29.993Z,9.30
2022-12-18T13:20:05.644Z,9.30
2022-12-18T13:22:49.343Z,9.30
2022-12-18T13:25:38.669Z,9.30
2022-12-18T13:28:14.421Z,9.30
2022-12-18T13:30:45.101Z,9.30
2022-12-18T13:33:18.607Z,9.20
2022-12-18T13:35:48.850Z,9.20
2022-12-18T13:39:07.704Z,9.20
2022-12-18T13:41:37.432Z,9.20
2022-12-18T13:44:22.656Z,9.30
2022-12-18T13:46:52.285Z,9.30
2022-12-18T13:49:48.714Z,9.30
2022-12-18T13:52:25.277Z,9.30
2022-12-18T13:55:01.285Z,9.20
2022-12-18T14:00:43.079Z,9.20
2022-12-18T14:03:27.189Z,9.10
2022-12-18T14:05:57.872Z,9.10
2022-12-18T14:08:51.165Z,9.20
2022-12-18T14:11:24.877Z,9.10
2022-12-18T14:13:56.504Z,9.10
2022-12-18T14:16:24.262Z,9.10
2022-12-18T14:19:01.959Z,9.20
2022-12-18T14:21:50.643Z,9.20
2022-12-18T14:24:20.783Z,9.10
2022-12-18T14:26:50.457Z,9.00
2022-12-18T14:29:31.797Z,8.90
2022-12-18T14:32:17.976Z,9.00
2022-12-18T14:34:51.168Z,9.00
2022-12-18T14:37:23.915Z,9.00
2022-12-18T14:40:11.114Z,9.00
2022-12-18T14:42:38.783Z,8.80
2022-12-18T14:45:41.525Z,8.80
2022-12-18T14:48:22.825Z,8.70
2022-12-18T14:51:17.945Z,8.70
2022-12-18T14:54:09.285Z,8.60
2022-12-18T14:56:46.477Z,8.60
2022-12-18T14:59:24.555Z,8.50
2022-12-18T15:05:28.348Z,8.40
2022-12-18T15:07:58.405Z,8.40
2022-12-18T15:10:32.562Z,8.30
2022-12-18T15:13:01.348Z,8.30
2022-12-18T15:15:34.815Z,8.30
2022-12-18T15:18:12.070Z,8.20
2022-12-18T15:20:52.969Z,8.10
2022-12-18T15:23:20.281Z,8.20
2022-12-18T15:29:24.130Z,8.10
2022-12-18T15:32:05.216Z,8.00
2022-12-18T15:34:36.386Z,8.00
2022-12-18T15:37:04.002Z,7.90
2022-12-18T15:39:32.793Z,7.90
2022-12-18T15:42:20.343Z,7.80
2022-12-18T15:44:47.924Z,7.80
2022-12-18T15:47:15.603Z,7.70
2022-12-18T15:49:43.292Z,7.70
2022-12-18T15:52:14.342Z,7.60
2022-12-18T15:55:00.211Z,7.60
2022-12-18T15:57:27.696Z,7.60
2022-12-18T15:59:59.118Z,7.50
2022-12-18T16:02:28.989Z,7.50
2022-12-18T16:04:56.849Z,7.50
2022-12-18T16:07:24.881Z,7.50
2022-12-18T16:09:55.497Z,7.40
2022-12-18T16:12:28.140Z,7.30
2022-12-18T16:14:55.416Z,7.20
2022-12-18T16:17:26.223Z,7.20
2022-12-18T16:20:23.097Z,7.20
2022-12-18T16:22:54.069Z,7.10
2022-12-18T16:25:29.207Z,7.20
2022-12-18T16:27:57.240Z,7.10
2022-12-18T16:30:38.506Z,7.10
2022-12-18T16:33:07.544Z,7.00
2022-12-18T16:35:37.905Z,7.00
2022-12-18T16:38:06.825Z,7.00
2022-12-18T16:40:54.360Z,6.90
2022-12-18T16:43:26.159Z,6.80
2022-12-18T16:45:58.255Z,6.80
2022-12-18T16:48:26.050Z,6.80
2022-12-18T16:51:04.840Z,6.70
2022-12-18T16:53:35.827Z,6.70
2022-12-18T16:56:04.095Z,6.70
2022-12-18T16:58:41.498Z,6.70
2022-12-18T17:01:37.325Z,6.60
2022-12-18T17:04:08.584Z,6.60
2022-12-18T17:06:41.532Z,6.50
2022-12-18T17:09:15.065Z,6.50
2022-12-18T17:12:08.702Z,6.50
2022-12-18T17:14:37.022Z,6.40
2022-12-18T17:17:20.875Z,6.40
2022-12-18T17:19:52.852Z,6.30
2022-12-18T17:22:23.220Z,6.30
2022-12-18T17:24:50.732Z,6.30
2022-12-18T17:27:18.100Z,6.20
2022-12-18T17:29:48.199Z,6.20
2022-12-18T17:32:17.752Z,6.10
2022-12-18T17:34:46.553Z,6.20
2022-12-18T17:37:18.493Z,6.10
2022-12-18T17:39:49.572Z,6.10
2022-12-18T17:42:19.278Z,6.10
2022-12-18T17:44:49.313Z,6.00
2022-12-18T17:47:17.682Z,6.00
2022-12-18T17:49:46.143Z,6.00
2022-12-18T17:52:15.489Z,6.00
2022-12-18T17:54:45.236Z,5.90
2022-12-18T17:57:14.267Z,5.80
2022-12-18T17:59:45.627Z,5.80
2022-12-18T18:02:13.042Z,5.80
2022-12-18T18:04:46.623Z,5.70
2022-12-18T18:07:16.449Z,5.60
2022-12-18T18:09:43.828Z,5.60
2022-12-18T18:12:29.737Z,5.60
2022-12-18T18:14:57.242Z,5.60
2022-12-18T18:17:24.932Z,5.60
2022-12-18T18:19:52.324Z,5.50
2022-12-18T18:22:20.344Z,5.60
2022-12-18T18:24:47.741Z,5.50
2022-12-18T18:27:17.472Z,5.50
2022-12-18T18:29:45.077Z,5.40
2022-12-18T18:32:16.810Z,5.50
2022-12-18T18:34:46.463Z,5.40
2022-12-18T18:37:13.832Z,5.40
2022-12-18T18:39:43.910Z,5.30
2022-12-18T18:42:13.990Z,5.40
2022-12-18T18:44:44.520Z,5.30
2022-12-18T18:47:19.253Z,5.30
2022-12-18T18:49:47.127Z,5.30
2022-12-18T18:52:15.297Z,5.30
2022-12-18T18:55:03.816Z,5.40
2022-12-18T18:57:30.619Z,5.40
2022-12-18T18:59:58.102Z,5.50
2022-12-18T19:02:25.555Z,5.40
2022-12-18T19:04:57.310Z,5.30
2022-12-18T19:07:30.231Z,5.30
2022-12-18T19:10:04.773Z,5.20
2022-12-18T19:12:54.029Z,5.10
2022-12-18T19:15:22.297Z,5.10
2022-12-18T19:17:49.877Z,5.20
2022-12-18T19:20:18.145Z,5.10
2022-12-18T19:22:49.696Z,5.10
2022-12-18T19:25:40.531Z,5.00
2022-12-18T19:28:13.493Z,5.00
2022-12-18T19:30:50.246Z,5.00
2022-12-18T19:33:41.901Z,4.90
2022-12-18T19:36:15.414Z,4.90
2022-12-18T19:38:47.605Z,4.70
2022-12-18T19:41:19.085Z,4.50
2022-12-18T19:43:46.962Z,4.50
2022-12-18T19:46:18.882Z,4.60
2022-12-18T19:48:47.382Z,4.60
2022-12-18T19:51:23.544Z,4.60
2022-12-18T19:53:58.490Z,4.60
2022-12-18T19:56:34.536Z,4.70
2022-12-18T19:59:03.674Z,4.70
2022-12-18T20:01:32.576Z,4.70
2022-12-18T20:04:00.376Z,4.70
2022-12-18T20:06:37.009Z,4.60
2022-12-18T20:09:06.621Z,4.60
2022-12-18T20:11:39.671Z,4.60
2022-12-18T20:14:10.812Z,4.60
2022-12-18T20:16:42.689Z,4.50
2022-12-18T20:19:14.584Z,4.50
2022-12-18T20:21:47.095Z,4.50
2022-12-18T20:24:14.500Z,4.50
2022-12-18T20:26:41.958Z,4.50
2022-12-18T20:29:09.323Z,4.40
2022-12-18T20:31:36.659Z,4.40
2022-12-18T20:34:04.969Z,4.40
2022-12-18T20:36:35.327Z,4.40
2022-12-18T20:39:08.928Z,4.50
2022-12-18T20:41:39.108Z,4.40
2022-12-18T20:44:21.511Z,4.40
2022-12-18T20:46:56.260Z,4.30
2022-12-18T20:49:25.987Z,4.30
2022-12-18T20:51:56.259Z,4.20
2022-12-18T20:54:26.302Z,4.10
2022-12-18T20:56:55.431Z,4.00
2022-12-18T20:59:25.150Z,3.90
2022-12-18T21:01:57.653Z,3.80
2022-12-18T21:04:32.865Z,3.80
2022-12-18T21:07:02.685Z,3.90
2022-12-18T21:09:38.661Z,3.90
2022-12-18T21:12:33.440Z,3.90
2022-12-18T21:15:09.960Z,3.90
2022-12-18T21:17:37.494Z,3.90
2022-12-18T21:20:15.709Z,3.90
2022-12-18T21:22:46.631Z,3.90
2022-12-18T21:25:18.032Z,3.80
2022-12-18T21:27:45.314Z,3.90
2022-12-18T21:30:14.500Z,3.90
2022-12-18T21:32:41.782Z,3.80
2022-12-18T21:35:09.482Z,3.80
2022-12-18T21:37:36.726Z,3.80
2022-12-18T21:40:05.180Z,3.70
2022-12-18T21:42:51.026Z,3.60
2022-12-18T21:45:18.256Z,3.60
2022-12-18T21:47:45.474Z,3.60
2022-12-18T21:50:12.964Z,3.60
2022-12-18T21:52:40.391Z,3.60
2022-12-18T21:55:09.897Z,3.60
2022-12-18T21:57:39.261Z,3.60
2022-12-18T22:00:11.254Z,3.60
2022-12-18T22:02:46.460Z,3.70
2022-12-18T22:05:13.898Z,3.70
2022-12-18T22:07:41.282Z,3.70
2022-12-18T22:10:09.038Z,3.60
2022-12-18T22:12:38.561Z,3.60
2022-12-18T22:15:21.676Z,3.60
2022-12-18T22:17:51.192Z,3.60
2022-12-18T22:20:22.792Z,3.50
2022-12-18T22:22:51.709Z,3.50
2022-12-18T22:25:19.067Z,3.50
2022-12-18T22:28:08.164Z,3.50
2022-12-18T22:30:36.379Z,3.50
2022-12-18T22:33:03.924Z,3.50
2022-12-18T22:35:31.431Z,3.50
2022-12-18T22:37:59.927Z,3.50
2022-12-18T22:40:28.319Z,3.40
2022-12-18T22:42:56.088Z,3.40
2022-12-18T22:45:26.817Z,3.40
2022-12-18T22:47:57.041Z,3.40
2022-12-18T22:50:24.611Z,3.40
2022-12-18T22:52:54.071Z,3.40
2022-12-18T22:55:21.329Z,3.40
2022-12-18T22:57:49.259Z,3.40
2022-12-18T23:00:21.975Z,3.40
2022-12-18T23:03:00.167Z,3.40
2022-12-18T23:05:30.031Z,3.50
2022-12-18T23:07:59.548Z,3.40
2022-12-18T23:10:27.895Z,3.40
2022-12-18T23:12:55.475Z,3.40
2022-12-18T23:15:28.329Z,3.50
2022-12-18T23:17:57.806Z,3.50
2022-12-18T23:20:26.749Z,3.50
2022-12-18T23:22:54.175Z,3.60
2022-12-18T23:25:21.560Z,3.60
2022-12-18T23:27:48.825Z,3.50
2022-12-18T23:30:16.059Z,3.50
2022-12-18T23:32:43.320Z,3.50
2022-12-18T23:35:10.691Z,3.50
2022-12-18T23:37:58.740Z,3.50
2022-12-18T23:40:27.441Z,3.60
2022-12-18T23:42:55.461Z,3.50
2022-12-18T23:45:22.692Z,3.50
2022-12-18T23:47:51.118Z,3.50
2022-12-18T23:50:18.749Z,3.50
2022-12-18T23:52:46.089Z,3.50
2022-12-18T23:55:13.886Z,3.50
2022-12-18T23:57:41.375Z,3.50
